sensor_id;sensor_type;location;lat;lon;timestamp;P1;durP1;ratioP1;P2;durP2;ratioP2
19049;SDS011;9657;45.940;12.840;2023-08-08T00:01:48;2.45;;;1.48;;
19049;SDS011;9657;45.940;12.840;2023-08-08T00:04:15;2.33;;;1.30;;
19049;SDS011;9657;45.940;12.840;2023-08-08T00:06:42;1.75;;;1.20;;
19049;SDS011;9657;45.940;12.840;2023-08-08T00:09:09;3.22;;;1.10;;
19049;SDS011;9657;45.940;12.840;2023-08-08T00:11:37;1.60;;;1.20;;
19049;SDS011;9657;45.940;12.840;2023-08-08T00:14:04;1.85;;;1.23;;
19049;SDS011;9657;45.940;12.840;2023-08-08T00:16:31;2.65;;;1.50;;
19049;SDS011;9657;45.940;12.840;2023-08-08T00:18:58;2.15;;;1.10;;
19049;SDS011;9657;45.940;12.840;2023-08-08T00:21:25;4.00;;;1.25;;
19049;SDS011;9657;45.940;12.840;2023-08-08T00:23:52;1.45;;;1.00;;
19049;SDS011;9657;45.940;12.840;2023-08-08T00:26:19;2.00;;;1.15;;
19049;SDS011;9657;45.940;12.840;2023-08-08T00:28:48;3.33;;;1.25;;
19049;SDS011;9657;45.940;12.840;2023-08-08T00:31:15;2.17;;;1.13;;
19049;SDS011;9657;45.940;12.840;2023-08-08T00:33:44;3.42;;;1.25;;
19049;SDS011;9657;45.940;12.840;2023-08-08T00:36:11;1.90;;;1.30;;
19049;SDS011;9657;45.940;12.840;2023-08-08T00:38:38;2.60;;;1.10;;
19049;SDS011;9657;45.940;12.840;2023-08-08T00:41:05;2.30;;;1.33;;
19049;SDS011;9657;45.940;12.840;2023-08-08T00:43:32;1.17;;;1.02;;
19049;SDS011;9657;45.940;12.840;2023-08-08T00:46:01;1.33;;;1.10;;
19049;SDS011;9657;45.940;12.840;2023-08-08T00:48:28;1.30;;;0.95;;
19049;SDS011;9657;45.940;12.840;2023-08-08T00:50:56;3.20;;;1.25;;
19049;SDS011;9657;45.940;12.840;2023-08-08T00:53:23;1.50;;;1.08;;
19049;SDS011;9657;45.940;12.840;2023-08-08T00:55:52;1.40;;;0.80;;
19049;SDS011;9657;45.940;12.840;2023-08-08T00:58:20;2.55;;;1.15;;
19049;SDS011;9657;45.940;12.840;2023-08-08T01:03:24;2.85;;;1.27;;
19049;SDS011;9657;45.940;12.840;2023-08-08T01:05:53;2.03;;;1.27;;
19049;SDS011;9657;45.940;12.840;2023-08-08T01:08:27;2.20;;;1.35;;
19049;SDS011;9657;45.940;12.840;2023-08-08T01:10:59;1.10;;;0.82;;
19049;SDS011;9657;45.940;12.840;2023-08-08T01:13:26;2.75;;;1.27;;
19049;SDS011;9657;45.940;12.840;2023-08-08T01:15:57;1.92;;;1.10;;
19049;SDS011;9657;45.940;12.840;2023-08-08T01:18:26;1.52;;;1.42;;
19049;SDS011;9657;45.940;12.840;2023-08-08T01:20:54;2.22;;;1.10;;
19049;SDS011;9657;45.940;12.840;2023-08-08T01:23:23;2.72;;;1.10;;
19049;SDS011;9657;45.940;12.840;2023-08-08T01:26:09;1.92;;;1.10;;
19049;SDS011;9657;45.940;12.840;2023-08-08T01:28:36;1.80;;;1.13;;
19049;SDS011;9657;45.940;12.840;2023-08-08T01:31:03;1.90;;;1.30;;
19049;SDS011;9657;45.940;12.840;2023-08-08T01:33:30;1.25;;;0.98;;
19049;SDS011;9657;45.940;12.840;2023-08-08T01:35:58;1.90;;;1.20;;
19049;SDS011;9657;45.940;12.840;2023-08-08T01:38:30;2.50;;;1.27;;
19049;SDS011;9657;45.940;12.840;2023-08-08T01:41:00;1.92;;;1.13;;
19049;SDS011;9657;45.940;12.840;2023-08-08T01:43:31;2.13;;;1.30;;
19049;SDS011;9657;45.940;12.840;2023-08-08T01:45:59;2.08;;;1.17;;
19049;SDS011;9657;45.940;12.840;2023-08-08T01:48:28;1.38;;;1.27;;
19049;SDS011;9657;45.940;12.840;2023-08-08T01:50:55;1.55;;;1.13;;
19049;SDS011;9657;45.940;12.840;2023-08-08T01:53:22;1.30;;;1.00;;
19049;SDS011;9657;45.940;12.840;2023-08-08T01:55:50;2.45;;;1.23;;
19049;SDS011;9657;45.940;12.840;2023-08-08T01:58:17;1.52;;;1.02;;
19049;SDS011;9657;45.940;12.840;2023-08-08T02:00:45;1.55;;;1.15;;
19049;SDS011;9657;45.940;12.840;2023-08-08T02:03:12;1.30;;;1.17;;
19049;SDS011;9657;45.940;12.840;2023-08-08T02:05:40;1.42;;;1.00;;
19049;SDS011;9657;45.940;12.840;2023-08-08T02:08:07;1.63;;;1.00;;
19049;SDS011;9657;45.940;12.840;2023-08-08T02:10:34;1.70;;;1.25;;
19049;SDS011;9657;45.940;12.840;2023-08-08T02:13:01;1.25;;;1.00;;
19049;SDS011;9657;45.940;12.840;2023-08-08T02:15:28;1.63;;;1.30;;
19049;SDS011;9657;45.940;12.840;2023-08-08T02:17:57;1.50;;;1.20;;
19049;SDS011;9657;45.940;12.840;2023-08-08T02:20:25;1.63;;;1.33;;
19049;SDS011;9657;45.940;12.840;2023-08-08T02:22:52;2.00;;;1.40;;
19049;SDS011;9657;45.940;12.840;2023-08-08T02:25:19;2.55;;;1.30;;
19049;SDS011;9657;45.940;12.840;2023-08-08T02:27:46;2.33;;;1.45;;
19049;SDS011;9657;45.940;12.840;2023-08-08T02:30:13;1.30;;;0.95;;
19049;SDS011;9657;45.940;12.840;2023-08-08T02:32:41;1.80;;;1.40;;
19049;SDS011;9657;45.940;12.840;2023-08-08T02:35:09;2.28;;;1.30;;
19049;SDS011;9657;45.940;12.840;2023-08-08T02:37:36;1.95;;;1.50;;
19049;SDS011;9657;45.940;12.840;2023-08-08T02:40:04;2.67;;;1.50;;
19049;SDS011;9657;45.940;12.840;2023-08-08T02:42:32;1.63;;;1.20;;
19049;SDS011;9657;45.940;12.840;2023-08-08T02:44:59;2.63;;;1.60;;
19049;SDS011;9657;45.940;12.840;2023-08-08T02:47:26;1.58;;;1.15;;
19049;SDS011;9657;45.940;12.840;2023-08-08T02:49:53;2.28;;;1.33;;
19049;SDS011;9657;45.940;12.840;2023-08-08T02:52:21;1.80;;;1.30;;
19049;SDS011;9657;45.940;12.840;2023-08-08T02:54:48;2.35;;;1.50;;
19049;SDS011;9657;45.940;12.840;2023-08-08T02:57:15;1.83;;;1.23;;
19049;SDS011;9657;45.940;12.840;2023-08-08T02:59:43;1.88;;;1.20;;
19049;SDS011;9657;45.940;12.840;2023-08-08T03:02:10;1.33;;;1.10;;
19049;SDS011;9657;45.940;12.840;2023-08-08T03:04:37;2.35;;;1.20;;
19049;SDS011;9657;45.940;12.840;2023-08-08T03:07:04;1.10;;;0.88;;
19049;SDS011;9657;45.940;12.840;2023-08-08T03:09:32;1.75;;;1.20;;
19049;SDS011;9657;45.940;12.840;2023-08-08T03:11:59;1.60;;;1.42;;
19049;SDS011;9657;45.940;12.840;2023-08-08T03:14:27;2.25;;;1.08;;
19049;SDS011;9657;45.940;12.840;2023-08-08T03:16:54;2.20;;;1.25;;
19049;SDS011;9657;45.940;12.840;2023-08-08T03:19:21;1.25;;;1.10;;
19049;SDS011;9657;45.940;12.840;2023-08-08T03:21:48;2.67;;;1.40;;
19049;SDS011;9657;45.940;12.840;2023-08-08T03:24:15;1.90;;;1.40;;
19049;SDS011;9657;45.940;12.840;2023-08-08T03:26:44;1.40;;;1.23;;
19049;SDS011;9657;45.940;12.840;2023-08-08T03:29:11;1.45;;;1.15;;
19049;SDS011;9657;45.940;12.840;2023-08-08T03:31:38;1.83;;;1.15;;
19049;SDS011;9657;45.940;12.840;2023-08-08T03:34:05;1.35;;;1.23;;
19049;SDS011;9657;45.940;12.840;2023-08-08T03:36:32;1.80;;;1.02;;
19049;SDS011;9657;45.940;12.840;2023-08-08T03:39:00;3.85;;;1.20;;
19049;SDS011;9657;45.940;12.840;2023-08-08T03:41:28;1.30;;;1.20;;
19049;SDS011;9657;45.940;12.840;2023-08-08T03:43:57;1.67;;;1.20;;
19049;SDS011;9657;45.940;12.840;2023-08-08T03:46:24;1.33;;;1.15;;
19049;SDS011;9657;45.940;12.840;2023-08-08T03:48:51;1.83;;;0.95;;
19049;SDS011;9657;45.940;12.840;2023-08-08T03:51:18;1.40;;;1.17;;
19049;SDS011;9657;45.940;12.840;2023-08-08T03:53:45;1.70;;;1.23;;
19049;SDS011;9657;45.940;12.840;2023-08-08T03:56:12;2.08;;;1.05;;
19049;SDS011;9657;45.940;12.840;2023-08-08T03:58:39;2.13;;;1.38;;
19049;SDS011;9657;45.940;12.840;2023-08-08T04:01:07;1.27;;;1.10;;
19049;SDS011;9657;45.940;12.840;2023-08-08T04:03:34;3.08;;;1.13;;
19049;SDS011;9657;45.940;12.840;2023-08-08T04:06:02;1.35;;;1.17;;
19049;SDS011;9657;45.940;12.840;2023-08-08T04:08:29;1.50;;;1.17;;
19049;SDS011;9657;45.940;12.840;2023-08-08T04:10:57;2.33;;;1.20;;
19049;SDS011;9657;45.940;12.840;2023-08-08T04:13:24;1.27;;;1.05;;
19049;SDS011;9657;45.940;12.840;2023-08-08T04:15:51;1.33;;;0.98;;
19049;SDS011;9657;45.940;12.840;2023-08-08T04:18:20;1.00;;;0.90;;
19049;SDS011;9657;45.940;12.840;2023-08-08T04:20:47;1.45;;;1.10;;
19049;SDS011;9657;45.940;12.840;2023-08-08T04:23:14;1.60;;;1.20;;
19049;SDS011;9657;45.940;12.840;2023-08-08T04:25:41;1.50;;;0.93;;
19049;SDS011;9657;45.940;12.840;2023-08-08T04:28:08;1.27;;;1.08;;
19049;SDS011;9657;45.940;12.840;2023-08-08T04:30:35;1.23;;;1.00;;
19049;SDS011;9657;45.940;12.840;2023-08-08T04:33:02;1.65;;;1.30;;
19049;SDS011;9657;45.940;12.840;2023-08-08T04:35:31;1.65;;;1.00;;
19049;SDS011;9657;45.940;12.840;2023-08-08T04:37:58;1.05;;;0.90;;
19049;SDS011;9657;45.940;12.840;2023-08-08T04:40:25;2.17;;;1.10;;
19049;SDS011;9657;45.940;12.840;2023-08-08T04:42:52;1.30;;;1.17;;
19049;SDS011;9657;45.940;12.840;2023-08-08T04:45:19;1.80;;;1.05;;
19049;SDS011;9657;45.940;12.840;2023-08-08T04:47:47;1.05;;;1.00;;
19049;SDS011;9657;45.940;12.840;2023-08-08T04:50:14;1.70;;;1.02;;
19049;SDS011;9657;45.940;12.840;2023-08-08T04:52:42;1.48;;;1.20;;
19049;SDS011;9657;45.940;12.840;2023-08-08T04:55:10;1.80;;;1.10;;
19049;SDS011;9657;45.940;12.840;2023-08-08T04:57:37;1.27;;;1.13;;
19049;SDS011;9657;45.940;12.840;2023-08-08T05:00:04;1.23;;;0.90;;
19049;SDS011;9657;45.940;12.840;2023-08-08T05:02:33;0.98;;;0.88;;
19049;SDS011;9657;45.940;12.840;2023-08-08T05:05:01;0.68;;;0.68;;
19049;SDS011;9657;45.940;12.840;2023-08-08T05:07:28;2.22;;;0.98;;
19049;SDS011;9657;45.940;12.840;2023-08-08T05:09:57;1.10;;;1.00;;
19049;SDS011;9657;45.940;12.840;2023-08-08T05:12:24;1.20;;;1.10;;
19049;SDS011;9657;45.940;12.840;2023-08-08T05:14:51;2.13;;;1.05;;
19049;SDS011;9657;45.940;12.840;2023-08-08T05:17:18;1.20;;;0.98;;
19049;SDS011;9657;45.940;12.840;2023-08-08T05:19:45;1.85;;;1.20;;
19049;SDS011;9657;45.940;12.840;2023-08-08T05:22:12;1.35;;;1.02;;
19049;SDS011;9657;45.940;12.840;2023-08-08T05:24:39;2.05;;;1.10;;
19049;SDS011;9657;45.940;12.840;2023-08-08T05:27:07;1.90;;;1.08;;
19049;SDS011;9657;45.940;12.840;2023-08-08T05:29:36;2.33;;;1.00;;
19049;SDS011;9657;45.940;12.840;2023-08-08T05:32:03;1.65;;;1.02;;
19049;SDS011;9657;45.940;12.840;2023-08-08T05:34:31;1.00;;;0.90;;
19049;SDS011;9657;45.940;12.840;2023-08-08T05:36:59;1.55;;;1.10;;
19049;SDS011;9657;45.940;12.840;2023-08-08T05:39:26;1.85;;;0.90;;
19049;SDS011;9657;45.940;12.840;2023-08-08T05:41:53;1.38;;;1.10;;
19049;SDS011;9657;45.940;12.840;2023-08-08T05:44:21;2.42;;;1.50;;
19049;SDS011;9657;45.940;12.840;2023-08-08T05:46:48;5.25;;;3.90;;
19049;SDS011;9657;45.940;12.840;2023-08-08T05:49:15;12.75;;;8.68;;
19049;SDS011;9657;45.940;12.840;2023-08-08T05:51:42;18.50;;;11.57;;
19049;SDS011;9657;45.940;12.840;2023-08-08T05:54:09;20.75;;;12.23;;
19049;SDS011;9657;45.940;12.840;2023-08-08T05:56:37;20.20;;;13.82;;
19049;SDS011;9657;45.940;12.840;2023-08-08T05:59:04;22.38;;;13.65;;
19049;SDS011;9657;45.940;12.840;2023-08-08T06:01:33;24.00;;;14.45;;
19049;SDS011;9657;45.940;12.840;2023-08-08T06:04:00;19.48;;;13.15;;
19049;SDS011;9657;45.940;12.840;2023-08-08T06:06:28;19.85;;;11.68;;
19049;SDS011;9657;45.940;12.840;2023-08-08T06:08:55;16.63;;;11.73;;
19049;SDS011;9657;45.940;12.840;2023-08-08T06:11:23;16.63;;;10.40;;
19049;SDS011;9657;45.940;12.840;2023-08-08T06:13:50;15.60;;;9.88;;
19049;SDS011;9657;45.940;12.840;2023-08-08T06:16:17;14.77;;;9.43;;
19049;SDS011;9657;45.940;12.840;2023-08-08T06:18:46;14.18;;;8.95;;
19049;SDS011;9657;45.940;12.840;2023-08-08T06:21:13;13.88;;;9.07;;
19049;SDS011;9657;45.940;12.840;2023-08-08T06:23:40;12.25;;;8.65;;
19049;SDS011;9657;45.940;12.840;2023-08-08T06:26:07;12.63;;;8.18;;
19049;SDS011;9657;45.940;12.840;2023-08-08T06:28:34;11.35;;;7.70;;
19049;SDS011;9657;45.940;12.840;2023-08-08T06:31:02;12.23;;;7.90;;
19049;SDS011;9657;45.940;12.840;2023-08-08T06:33:29;10.63;;;7.35;;
19049;SDS011;9657;45.940;12.840;2023-08-08T06:35:57;11.88;;;7.53;;
19049;SDS011;9657;45.940;12.840;2023-08-08T06:38:24;11.18;;;7.57;;
19049;SDS011;9657;45.940;12.840;2023-08-08T06:40:51;10.85;;;7.40;;
19049;SDS011;9657;45.940;12.840;2023-08-08T06:43:18;10.38;;;6.93;;
19049;SDS011;9657;45.940;12.840;2023-08-08T06:45:45;11.13;;;6.78;;
19049;SDS011;9657;45.940;12.840;2023-08-08T06:48:12;10.57;;;7.07;;
19049;SDS011;9657;45.940;12.840;2023-08-08T06:50:39;9.65;;;6.80;;
19049;SDS011;9657;45.940;12.840;2023-08-08T06:53:08;8.43;;;5.93;;
19049;SDS011;9657;45.940;12.840;2023-08-08T06:55:35;8.68;;;5.75;;
19049;SDS011;9657;45.940;12.840;2023-08-08T06:58:02;9.32;;;6.40;;
19049;SDS011;9657;45.940;12.840;2023-08-08T07:00:29;8.80;;;5.65;;
19049;SDS011;9657;45.940;12.840;2023-08-08T07:02:56;7.88;;;5.28;;
19049;SDS011;9657;45.940;12.840;2023-08-08T07:05:23;6.50;;;4.18;;
19049;SDS011;9657;45.940;12.840;2023-08-08T07:07:51;8.05;;;4.57;;
19049;SDS011;9657;45.940;12.840;2023-08-08T07:10:19;7.70;;;4.35;;
19049;SDS011;9657;45.940;12.840;2023-08-08T07:12:47;7.00;;;5.10;;
19049;SDS011;9657;45.940;12.840;2023-08-08T07:15:14;6.65;;;3.60;;
19049;SDS011;9657;45.940;12.840;2023-08-08T07:17:41;5.90;;;3.70;;
19049;SDS011;9657;45.940;12.840;2023-08-08T07:20:09;5.60;;;4.03;;
19049;SDS011;9657;45.940;12.840;2023-08-08T07:22:38;5.07;;;3.50;;
19049;SDS011;9657;45.940;12.840;2023-08-08T07:25:06;6.53;;;3.70;;
19049;SDS011;9657;45.940;12.840;2023-08-08T07:27:35;4.88;;;3.20;;
19049;SDS011;9657;45.940;12.840;2023-08-08T07:30:02;5.13;;;3.40;;
19049;SDS011;9657;45.940;12.840;2023-08-08T07:32:30;6.50;;;3.38;;
19049;SDS011;9657;45.940;12.840;2023-08-08T07:34:56;5.55;;;3.22;;
19049;SDS011;9657;45.940;12.840;2023-08-08T07:37:26;5.50;;;3.30;;
19049;SDS011;9657;45.940;12.840;2023-08-08T07:39:53;4.75;;;3.53;;
19049;SDS011;9657;45.940;12.840;2023-08-08T07:42:20;5.63;;;3.45;;
19049;SDS011;9657;45.940;12.840;2023-08-08T07:44:48;4.80;;;3.30;;
19049;SDS011;9657;45.940;12.840;2023-08-08T07:47:15;4.22;;;2.90;;
19049;SDS011;9657;45.940;12.840;2023-08-08T07:49:42;5.63;;;2.90;;
19049;SDS011;9657;45.940;12.840;2023-08-08T07:52:09;5.07;;;3.20;;
19049;SDS011;9657;45.940;12.840;2023-08-08T07:54:36;4.57;;;3.03;;
19049;SDS011;9657;45.940;12.840;2023-08-08T07:57:04;5.43;;;3.10;;
19049;SDS011;9657;45.940;12.840;2023-08-08T07:59:31;7.00;;;3.15;;
19049;SDS011;9657;45.940;12.840;2023-08-08T08:01:59;4.97;;;3.28;;
19049;SDS011;9657;45.940;12.840;2023-08-08T08:04:26;5.57;;;2.80;;
19049;SDS011;9657;45.940;12.840;2023-08-08T08:06:53;4.90;;;2.97;;
19049;SDS011;9657;45.940;12.840;2023-08-08T08:09:20;4.07;;;3.10;;
19049;SDS011;9657;45.940;12.840;2023-08-08T08:11:47;3.22;;;2.70;;
19049;SDS011;9657;45.940;12.840;2023-08-08T08:14:14;3.97;;;2.28;;
19049;SDS011;9657;45.940;12.840;2023-08-08T08:16:41;5.85;;;2.50;;
19049;SDS011;9657;45.940;12.840;2023-08-08T08:19:10;4.13;;;2.60;;
19049;SDS011;9657;45.940;12.840;2023-08-08T08:21:37;4.38;;;1.98;;
19049;SDS011;9657;45.940;12.840;2023-08-08T08:24:04;3.05;;;1.95;;
19049;SDS011;9657;45.940;12.840;2023-08-08T08:26:31;5.90;;;2.60;;
19049;SDS011;9657;45.940;12.840;2023-08-08T08:28:58;6.38;;;2.78;;
19049;SDS011;9657;45.940;12.840;2023-08-08T08:31:25;4.97;;;2.10;;
19049;SDS011;9657;45.940;12.840;2023-08-08T08:33:53;2.28;;;1.67;;
19049;SDS011;9657;45.940;12.840;2023-08-08T08:36:22;2.45;;;1.88;;
19049;SDS011;9657;45.940;12.840;2023-08-08T08:38:51;6.45;;;2.10;;
19049;SDS011;9657;45.940;12.840;2023-08-08T08:41:18;6.18;;;2.00;;
19049;SDS011;9657;45.940;12.840;2023-08-08T08:43:51;8.10;;;2.17;;
19049;SDS011;9657;45.940;12.840;2023-08-08T08:46:20;5.60;;;1.83;;
19049;SDS011;9657;45.940;12.840;2023-08-08T08:48:48;4.50;;;2.08;;
19049;SDS011;9657;45.940;12.840;2023-08-08T08:51:17;3.00;;;1.60;;
19049;SDS011;9657;45.940;12.840;2023-08-08T08:53:47;4.32;;;1.73;;
19049;SDS011;9657;45.940;12.840;2023-08-08T08:56:14;4.10;;;1.75;;
19049;SDS011;9657;45.940;12.840;2023-08-08T08:58:42;4.70;;;1.70;;
19049;SDS011;9657;45.940;12.840;2023-08-08T09:01:09;3.10;;;1.27;;
19049;SDS011;9657;45.940;12.840;2023-08-08T09:03:36;3.33;;;1.33;;
19049;SDS011;9657;45.940;12.840;2023-08-08T09:06:04;5.47;;;1.10;;
19049;SDS011;9657;45.940;12.840;2023-08-08T09:08:31;2.17;;;1.40;;
19049;SDS011;9657;45.940;12.840;2023-08-08T09:10:59;7.53;;;1.45;;
19049;SDS011;9657;45.940;12.840;2023-08-08T09:13:26;4.93;;;1.30;;
19049;SDS011;9657;45.940;12.840;2023-08-08T09:15:59;3.72;;;0.95;;
19049;SDS011;9657;45.940;12.840;2023-08-08T09:18:26;3.97;;;1.27;;
19049;SDS011;9657;45.940;12.840;2023-08-08T09:20:53;3.45;;;1.25;;
19049;SDS011;9657;45.940;12.840;2023-08-08T09:23:20;3.00;;;1.13;;
19049;SDS011;9657;45.940;12.840;2023-08-08T09:25:47;3.58;;;1.45;;
19049;SDS011;9657;45.940;12.840;2023-08-08T09:28:16;4.20;;;1.58;;
19049;SDS011;9657;45.940;12.840;2023-08-08T09:30:43;4.47;;;1.55;;
19049;SDS011;9657;45.940;12.840;2023-08-08T09:33:11;3.75;;;1.10;;
19049;SDS011;9657;45.940;12.840;2023-08-08T09:35:38;3.53;;;1.30;;
19049;SDS011;9657;45.940;12.840;2023-08-08T09:38:05;3.17;;;1.10;;
19049;SDS011;9657;45.940;12.840;2023-08-08T09:40:33;2.92;;;1.58;;
19049;SDS011;9657;45.940;12.840;2023-08-08T09:43:00;7.07;;;1.58;;
19049;SDS011;9657;45.940;12.840;2023-08-08T09:45:34;4.25;;;1.33;;
19049;SDS011;9657;45.940;12.840;2023-08-08T09:48:03;3.22;;;1.10;;
19049;SDS011;9657;45.940;12.840;2023-08-08T09:50:31;4.75;;;1.17;;
19049;SDS011;9657;45.940;12.840;2023-08-08T09:53:00;5.07;;;1.42;;
19049;SDS011;9657;45.940;12.840;2023-08-08T09:55:28;5.13;;;1.45;;
19049;SDS011;9657;45.940;12.840;2023-08-08T09:57:56;4.07;;;1.25;;
19049;SDS011;9657;45.940;12.840;2023-08-08T10:00:24;3.15;;;1.23;;
19049;SDS011;9657;45.940;12.840;2023-08-08T10:02:54;2.92;;;1.00;;
19049;SDS011;9657;45.940;12.840;2023-08-08T10:05:22;2.90;;;1.10;;
19049;SDS011;9657;45.940;12.840;2023-08-08T10:07:50;4.97;;;1.35;;
19049;SDS011;9657;45.940;12.840;2023-08-08T10:10:17;3.20;;;0.85;;
19049;SDS011;9657;45.940;12.840;2023-08-08T10:12:45;4.28;;;1.20;;
19049;SDS011;9657;45.940;12.840;2023-08-08T10:15:14;2.40;;;1.08;;
19049;SDS011;9657;45.940;12.840;2023-08-08T10:17:41;3.35;;;1.20;;
19049;SDS011;9657;45.940;12.840;2023-08-08T10:20:11;2.38;;;1.20;;
19049;SDS011;9657;45.940;12.840;2023-08-08T10:22:41;3.40;;;1.00;;
19049;SDS011;9657;45.940;12.840;2023-08-08T10:25:16;3.55;;;1.30;;
19049;SDS011;9657;45.940;12.840;2023-08-08T10:27:44;4.65;;;1.23;;
19049;SDS011;9657;45.940;12.840;2023-08-08T10:30:12;4.38;;;1.02;;
19049;SDS011;9657;45.940;12.840;2023-08-08T10:32:40;1.50;;;0.90;;
19049;SDS011;9657;45.940;12.840;2023-08-08T10:35:08;1.88;;;1.23;;
19049;SDS011;9657;45.940;12.840;2023-08-08T10:37:38;2.90;;;1.00;;
19049;SDS011;9657;45.940;12.840;2023-08-08T10:40:06;3.33;;;1.05;;
19049;SDS011;9657;45.940;12.840;2023-08-08T10:42:45;3.60;;;0.98;;
19049;SDS011;9657;45.940;12.840;2023-08-08T10:45:13;3.85;;;1.35;;
19049;SDS011;9657;45.940;12.840;2023-08-08T10:47:41;2.50;;;1.02;;
19049;SDS011;9657;45.940;12.840;2023-08-08T10:50:11;1.95;;;0.80;;
19049;SDS011;9657;45.940;12.840;2023-08-08T10:52:51;2.58;;;1.00;;
19049;SDS011;9657;45.940;12.840;2023-08-08T10:55:20;2.25;;;1.05;;
19049;SDS011;9657;45.940;12.840;2023-08-08T10:57:55;1.92;;;1.00;;
19049;SDS011;9657;45.940;12.840;2023-08-08T11:00:27;0.95;;;0.70;;
19049;SDS011;9657;45.940;12.840;2023-08-08T11:02:56;2.67;;;1.20;;
19049;SDS011;9657;45.940;12.840;2023-08-08T11:05:24;2.08;;;0.88;;
19049;SDS011;9657;45.940;12.840;2023-08-08T11:07:53;1.52;;;0.70;;
19049;SDS011;9657;45.940;12.840;2023-08-08T11:10:21;1.30;;;1.00;;
19049;SDS011;9657;45.940;12.840;2023-08-08T11:12:53;2.00;;;0.75;;
19049;SDS011;9657;45.940;12.840;2023-08-08T11:15:21;1.85;;;1.30;;
19049;SDS011;9657;45.940;12.840;2023-08-08T11:17:48;1.73;;;0.93;;
19049;SDS011;9657;45.940;12.840;2023-08-08T11:20:17;1.25;;;0.88;;
19049;SDS011;9657;45.940;12.840;2023-08-08T11:22:44;1.45;;;0.95;;
19049;SDS011;9657;45.940;12.840;2023-08-08T11:25:17;1.52;;;0.93;;
19049;SDS011;9657;45.940;12.840;2023-08-08T11:27:48;1.35;;;0.95;;
19049;SDS011;9657;45.940;12.840;2023-08-08T11:30:16;1.48;;;0.77;;
19049;SDS011;9657;45.940;12.840;2023-08-08T11:32:43;2.35;;;0.70;;
19049;SDS011;9657;45.940;12.840;2023-08-08T11:35:11;2.45;;;1.00;;
19049;SDS011;9657;45.940;12.840;2023-08-08T11:37:38;1.60;;;0.90;;
19049;SDS011;9657;45.940;12.840;2023-08-08T11:40:06;2.03;;;0.90;;
19049;SDS011;9657;45.940;12.840;2023-08-08T11:42:36;2.63;;;0.90;;
19049;SDS011;9657;45.940;12.840;2023-08-08T11:45:04;2.03;;;0.90;;
19049;SDS011;9657;45.940;12.840;2023-08-08T11:47:32;2.63;;;1.10;;
19049;SDS011;9657;45.940;12.840;2023-08-08T11:50:01;2.35;;;1.17;;
19049;SDS011;9657;45.940;12.840;2023-08-08T11:52:28;1.17;;;0.95;;
19049;SDS011;9657;45.940;12.840;2023-08-08T11:54:57;2.08;;;1.00;;
19049;SDS011;9657;45.940;12.840;2023-08-08T11:57:26;1.27;;;0.70;;
19049;SDS011;9657;45.940;12.840;2023-08-08T11:59:54;1.95;;;1.08;;
19049;SDS011;9657;45.940;12.840;2023-08-08T12:02:22;0.60;;;0.60;;
19049;SDS011;9657;45.940;12.840;2023-08-08T12:04:49;1.40;;;0.98;;
19049;SDS011;9657;45.940;12.840;2023-08-08T12:07:16;2.13;;;0.90;;
19049;SDS011;9657;45.940;12.840;2023-08-08T12:09:46;1.80;;;0.70;;
19049;SDS011;9657;45.940;12.840;2023-08-08T12:12:13;0.82;;;0.73;;
19049;SDS011;9657;45.940;12.840;2023-08-08T12:14:43;2.38;;;0.85;;
19049;SDS011;9657;45.940;12.840;2023-08-08T12:17:11;1.55;;;0.90;;
19049;SDS011;9657;45.940;12.840;2023-08-08T12:19:44;1.20;;;0.63;;
19049;SDS011;9657;45.940;12.840;2023-08-08T12:22:13;1.10;;;0.75;;
19049;SDS011;9657;45.940;12.840;2023-08-08T12:24:40;2.53;;;0.80;;
19049;SDS011;9657;45.940;12.840;2023-08-08T12:27:07;2.33;;;0.75;;
19049;SDS011;9657;45.940;12.840;2023-08-08T12:29:34;1.15;;;0.70;;
19049;SDS011;9657;45.940;12.840;2023-08-08T12:32:01;0.70;;;0.57;;
19049;SDS011;9657;45.940;12.840;2023-08-08T12:34:34;2.50;;;0.90;;
19049;SDS011;9657;45.940;12.840;2023-08-08T12:37:01;1.50;;;0.80;;
19049;SDS011;9657;45.940;12.840;2023-08-08T12:39:28;0.80;;;0.60;;
19049;SDS011;9657;45.940;12.840;2023-08-08T12:41:56;0.77;;;0.60;;
19049;SDS011;9657;45.940;12.840;2023-08-08T12:44:23;1.95;;;0.80;;
19049;SDS011;9657;45.940;12.840;2023-08-08T12:46:50;1.23;;;0.82;;
19049;SDS011;9657;45.940;12.840;2023-08-08T12:49:17;1.02;;;0.70;;
19049;SDS011;9657;45.940;12.840;2023-08-08T12:51:45;1.42;;;0.90;;
19049;SDS011;9657;45.940;12.840;2023-08-08T12:54:12;1.30;;;0.70;;
19049;SDS011;9657;45.940;12.840;2023-08-08T12:56:39;0.68;;;0.68;;
19049;SDS011;9657;45.940;12.840;2023-08-08T12:59:06;2.13;;;0.75;;
19049;SDS011;9657;45.940;12.840;2023-08-08T13:01:35;0.88;;;0.70;;
19049;SDS011;9657;45.940;12.840;2023-08-08T13:04:02;0.73;;;0.57;;
19049;SDS011;9657;45.940;12.840;2023-08-08T13:06:29;1.45;;;0.73;;
19049;SDS011;9657;45.940;12.840;2023-08-08T13:08:59;1.40;;;0.82;;
19049;SDS011;9657;45.940;12.840;2023-08-08T13:11:26;0.95;;;0.68;;
19049;SDS011;9657;45.940;12.840;2023-08-08T13:13:53;0.88;;;0.85;;
19049;SDS011;9657;45.940;12.840;2023-08-08T13:16:20;1.27;;;0.60;;
19049;SDS011;9657;45.940;12.840;2023-08-08T13:18:48;1.33;;;0.93;;
19049;SDS011;9657;45.940;12.840;2023-08-08T13:21:15;1.63;;;0.57;;
19049;SDS011;9657;45.940;12.840;2023-08-08T13:23:42;0.80;;;0.80;;
19049;SDS011;9657;45.940;12.840;2023-08-08T13:26:11;0.88;;;0.73;;
19049;SDS011;9657;45.940;12.840;2023-08-08T13:28:38;1.65;;;0.80;;
19049;SDS011;9657;45.940;12.840;2023-08-08T13:31:05;1.25;;;0.60;;
19049;SDS011;9657;45.940;12.840;2023-08-08T13:33:33;1.58;;;0.73;;
19049;SDS011;9657;45.940;12.840;2023-08-08T13:36:00;1.35;;;0.85;;
19049;SDS011;9657;45.940;12.840;2023-08-08T13:38:28;1.33;;;0.73;;
19049;SDS011;9657;45.940;12.840;2023-08-08T13:40:55;0.70;;;0.60;;
19049;SDS011;9657;45.940;12.840;2023-08-08T13:43:23;1.27;;;0.75;;
19049;SDS011;9657;45.940;12.840;2023-08-08T13:45:50;1.15;;;0.55;;
19049;SDS011;9657;45.940;12.840;2023-08-08T13:48:17;0.40;;;0.40;;
19049;SDS011;9657;45.940;12.840;2023-08-08T13:50:45;0.65;;;0.65;;
19049;SDS011;9657;45.940;12.840;2023-08-08T13:53:12;1.42;;;0.82;;
19049;SDS011;9657;45.940;12.840;2023-08-08T13:55:39;0.90;;;0.70;;
19049;SDS011;9657;45.940;12.840;2023-08-08T13:58:06;1.00;;;0.70;;
19049;SDS011;9657;45.940;12.840;2023-08-08T14:00:35;0.60;;;0.60;;
19049;SDS011;9657;45.940;12.840;2023-08-08T14:03:02;1.85;;;0.80;;
19049;SDS011;9657;45.940;12.840;2023-08-08T14:05:30;1.63;;;0.77;;
19049;SDS011;9657;45.940;12.840;2023-08-08T14:07:57;0.85;;;0.80;;
19049;SDS011;9657;45.940;12.840;2023-08-08T14:10:24;0.95;;;0.70;;
19049;SDS011;9657;45.940;12.840;2023-08-08T14:12:51;1.27;;;0.60;;
19049;SDS011;9657;45.940;12.840;2023-08-08T14:15:18;0.77;;;0.50;;
19049;SDS011;9657;45.940;12.840;2023-08-08T14:17:47;0.77;;;0.60;;
19049;SDS011;9657;45.940;12.840;2023-08-08T14:20:14;1.27;;;0.70;;
19049;SDS011;9657;45.940;12.840;2023-08-08T14:22:44;0.88;;;0.65;;
19049;SDS011;9657;45.940;12.840;2023-08-08T14:25:11;0.95;;;0.77;;
19049;SDS011;9657;45.940;12.840;2023-08-08T14:27:39;1.88;;;0.60;;
19049;SDS011;9657;45.940;12.840;2023-08-08T14:30:06;0.73;;;0.73;;
19049;SDS011;9657;45.940;12.840;2023-08-08T14:32:33;1.77;;;0.80;;
19049;SDS011;9657;45.940;12.840;2023-08-08T14:35:02;0.60;;;0.60;;
19049;SDS011;9657;45.940;12.840;2023-08-08T14:37:30;0.82;;;0.60;;
19049;SDS011;9657;45.940;12.840;2023-08-08T14:39:57;0.77;;;0.60;;
19049;SDS011;9657;45.940;12.840;2023-08-08T14:42:24;1.13;;;0.90;;
19049;SDS011;9657;45.940;12.840;2023-08-08T14:44:51;0.68;;;0.68;;
19049;SDS011;9657;45.940;12.840;2023-08-08T14:47:18;0.68;;;0.52;;
19049;SDS011;9657;45.940;12.840;2023-08-08T14:49:45;0.85;;;0.68;;
19049;SDS011;9657;45.940;12.840;2023-08-08T14:52:16;1.23;;;0.80;;